createdAt,value
2019-03-31T00:01:44.911Z,22.93
2019-03-31T00:04:20.599Z,21.60
2019-03-31T00:06:55.558Z,25.72
2019-03-31T00:09:29.358Z,23.18
2019-03-31T00:12:04.298Z,19.60
2019-03-31T00:14:38.881Z,16.32
2019-03-31T00:17:13.265Z,21.33
2019-03-31T00:19:48.828Z,18.57
2019-03-31T00:22:23.680Z,21.50
2019-03-31T00:24:58.029Z,22.05
2019-03-31T00:27:32.744Z,24.95
2019-03-31T00:30:07.977Z,21.52
2019-03-31T00:32:42.226Z,24.47
2019-03-31T00:35:16.588Z,21.93
2019-03-31T00:37:51.053Z,21.80
2019-03-31T00:40:25.607Z,19.92
2019-03-31T00:42:59.715Z,18.80
2019-03-31T00:45:34.134Z,16.40
2019-03-31T00:48:07.650Z,20.10
2019-03-31T00:50:41.912Z,17.60
2019-03-31T00:53:16.275Z,15.20
2019-03-31T00:55:51.542Z,27.02
2019-03-31T00:58:26.305Z,17.92
2019-03-31T01:01:20.080Z,21.48
2019-03-31T01:03:54.261Z,16.75
2019-03-31T01:06:29.504Z,19.90
2019-03-31T01:09:08.039Z,17.85
2019-03-31T01:11:42.172Z,20.08
2019-03-31T01:14:15.796Z,21.10
2019-03-31T01:19:22.897Z,15.13
2019-03-31T01:21:57.310Z,16.07
2019-03-31T01:24:31.967Z,21.02
2019-03-31T01:27:09.616Z,16.25
2019-03-31T01:29:44.057Z,22.82
2019-03-31T01:32:17.965Z,21.05
2019-03-31T01:34:52.844Z,17.15
2019-03-31T01:37:26.875Z,24.67
2019-03-31T01:40:01.328Z,14.65
2019-03-31T01:42:35.706Z,18.35
2019-03-31T01:45:10.288Z,21.02
2019-03-31T01:47:44.132Z,18.82
2019-03-31T01:50:18.703Z,22.70
2019-03-31T01:52:52.650Z,19.73
2019-03-31T01:55:26.918Z,19.37
2019-03-31T01:58:01.062Z,21.27
2019-03-31T02:00:41.354Z,18.67
2019-03-31T02:03:16.647Z,17.17
2019-03-31T02:05:50.140Z,19.70
2019-03-31T02:08:24.292Z,19.35
2019-03-31T02:11:09.188Z,22.42
2019-03-31T02:13:44.142Z,19.20
2019-03-31T02:16:18.726Z,19.20
2019-03-31T02:18:53.438Z,18.23
2019-03-31T02:21:28.045Z,18.75
2019-03-31T02:24:02.290Z,17.48
2019-03-31T02:26:36.925Z,19.52
2019-03-31T02:29:12.335Z,23.55
2019-03-31T02:31:46.476Z,17.30
2019-03-31T02:34:20.040Z,17.20
2019-03-31T02:39:27.428Z,11.95
2019-03-31T02:42:01.922Z,17.57
2019-03-31T02:44:37.123Z,17.62
2019-03-31T02:47:11.833Z,19.32
2019-03-31T02:49:46.899Z,11.97
2019-03-31T02:52:21.215Z,20.75
2019-03-31T02:54:55.948Z,19.92
2019-03-31T02:57:30.811Z,19.30
2019-03-31T03:00:05.971Z,20.52
2019-03-31T03:02:42.877Z,17.60
2019-03-31T03:05:20.391Z,17.52
2019-03-31T03:07:57.325Z,24.18
2019-03-31T03:10:33.669Z,19.87
2019-03-31T03:13:12.863Z,21.82
2019-03-31T03:16:27.825Z,18.42
2019-03-31T03:19:03.530Z,19.85
2019-03-31T03:21:39.224Z,17.23
2019-03-31T03:24:13.877Z,16.12
2019-03-31T03:26:48.374Z,20.45
2019-03-31T03:29:22.222Z,21.45
2019-03-31T03:31:56.241Z,17.02
2019-03-31T03:34:30.118Z,16.82
2019-03-31T03:37:06.063Z,19.87
2019-03-31T03:39:41.445Z,18.00
2019-03-31T03:42:16.533Z,16.17
2019-03-31T03:44:50.379Z,16.42
2019-03-31T03:47:25.686Z,16.80
2019-03-31T03:50:00.647Z,31.15
2019-03-31T03:52:37.711Z,21.77
2019-03-31T03:55:15.242Z,17.32
2019-03-31T03:57:51.183Z,16.57
2019-03-31T04:00:30.950Z,19.32
2019-03-31T04:03:08.279Z,16.80
2019-03-31T04:05:43.417Z,16.93
2019-03-31T04:08:26.178Z,17.40
2019-03-31T04:11:21.137Z,19.05
2019-03-31T04:13:52.800Z,17.27
2019-03-31T04:18:59.372Z,14.28
2019-03-31T04:21:33.641Z,14.93
2019-03-31T04:24:08.620Z,15.18
2019-03-31T04:26:43.464Z,17.87
2019-03-31T04:29:17.655Z,15.25
2019-03-31T04:31:52.076Z,15.85
2019-03-31T04:34:27.031Z,16.87
2019-03-31T04:37:01.543Z,19.57
2019-03-31T04:40:18.688Z,16.40
2019-03-31T04:46:00.423Z,15.55
2019-03-31T04:48:35.918Z,18.62
2019-03-31T04:51:11.483Z,22.42
2019-03-31T04:53:45.329Z,19.45
2019-03-31T04:56:20.047Z,16.80
2019-03-31T04:58:54.572Z,19.00
2019-03-31T05:01:29.355Z,17.40
2019-03-31T05:04:05.368Z,18.52
2019-03-31T05:06:40.819Z,18.32
2019-03-31T05:09:15.557Z,18.73
2019-03-31T05:11:50.046Z,15.65
2019-03-31T05:14:25.101Z,15.78
2019-03-31T05:17:00.271Z,14.30
2019-03-31T05:19:35.005Z,18.82
2019-03-31T05:22:08.174Z,20.07
2019-03-31T05:24:42.777Z,23.85
2019-03-31T05:27:16.894Z,22.52
2019-03-31T05:29:51.453Z,15.25
2019-03-31T05:32:26.824Z,13.60
2019-03-31T05:35:02.366Z,15.98
2019-03-31T05:37:50.215Z,21.20
2019-03-31T05:40:13.017Z,20.23
2019-03-31T05:42:47.701Z,20.23
2019-03-31T05:45:22.589Z,19.80
2019-03-31T05:47:56.604Z,20.27
2019-03-31T05:50:31.319Z,20.62
2019-03-31T05:53:05.011Z,15.38
2019-03-31T05:55:40.808Z,20.20
2019-03-31T05:58:15.520Z,23.15
2019-03-31T06:00:50.559Z,16.80
2019-03-31T06:03:24.706Z,18.70
2019-03-31T06:06:11.882Z,17.30
2019-03-31T06:08:49.272Z,17.55
2019-03-31T06:11:24.345Z,21.02
2019-03-31T06:14:00.665Z,17.35
2019-03-31T06:16:36.915Z,21.93
2019-03-31T06:19:14.040Z,19.10
2019-03-31T06:21:52.372Z,27.50
2019-03-31T06:24:26.890Z,21.15
2019-03-31T06:27:00.648Z,26.85
2019-03-31T06:29:36.319Z,24.60
2019-03-31T06:32:10.430Z,33.58
2019-03-31T06:34:47.739Z,39.90
2019-03-31T06:37:21.021Z,35.45
2019-03-31T06:39:56.922Z,38.33
2019-03-31T06:42:31.898Z,30.20
2019-03-31T06:45:06.131Z,26.17
2019-03-31T06:47:41.226Z,32.28
2019-03-31T06:50:16.170Z,23.92
2019-03-31T06:52:50.462Z,32.63
2019-03-31T06:55:25.610Z,32.42
2019-03-31T06:58:01.607Z,27.20
2019-03-31T07:00:37.441Z,23.30
2019-03-31T07:03:14.406Z,33.42
2019-03-31T07:05:48.672Z,25.85
2019-03-31T07:08:23.288Z,32.50
2019-03-31T07:10:58.195Z,26.07
2019-03-31T07:13:35.228Z,27.65
2019-03-31T07:16:10.273Z,24.37
2019-03-31T07:18:45.759Z,26.48
2019-03-31T07:21:20.531Z,31.80
2019-03-31T07:23:55.683Z,25.65
2019-03-31T07:26:30.338Z,27.42
2019-03-31T07:29:08.238Z,24.05
2019-03-31T07:31:43.181Z,25.70
2019-03-31T07:34:18.592Z,28.80
2019-03-31T07:36:53.277Z,26.35
2019-03-31T07:39:29.566Z,26.20
2019-03-31T07:42:06.868Z,22.90
2019-03-31T07:44:43.670Z,22.17
2019-03-31T07:47:18.330Z,26.07
2019-03-31T07:49:52.636Z,24.67
2019-03-31T07:52:27.984Z,22.80
2019-03-31T07:55:03.018Z,23.70
2019-03-31T07:57:37.531Z,24.90
2019-03-31T08:00:15.375Z,25.97
2019-03-31T08:02:50.099Z,27.98
2019-03-31T08:05:32.839Z,26.00
2019-03-31T08:08:01.053Z,22.82
2019-03-31T08:10:37.112Z,20.25
2019-03-31T08:13:12.311Z,23.70
2019-03-31T08:15:50.789Z,20.27
2019-03-31T08:18:31.237Z,24.77
2019-03-31T08:21:05.746Z,22.62
2019-03-31T08:23:40.715Z,24.00
2019-03-31T08:26:15.619Z,23.30
2019-03-31T08:28:50.307Z,19.32
2019-03-31T08:31:26.512Z,26.52
2019-03-31T08:34:00.408Z,23.15
2019-03-31T08:36:35.445Z,27.37
2019-03-31T08:39:12.134Z,19.05
2019-03-31T08:41:46.010Z,17.82
2019-03-31T08:44:21.761Z,19.52
2019-03-31T08:46:56.483Z,22.02
2019-03-31T08:49:32.182Z,20.52
2019-03-31T08:52:06.633Z,19.73
2019-03-31T08:54:41.300Z,18.27
2019-03-31T08:57:17.866Z,20.55
2019-03-31T08:59:52.397Z,21.95
2019-03-31T09:02:28.775Z,16.73
2019-03-31T09:05:02.897Z,19.77
2019-03-31T09:07:37.082Z,27.10
2019-03-31T09:10:13.055Z,20.90
2019-03-31T09:12:48.682Z,28.55
2019-03-31T09:15:25.377Z,18.12
2019-03-31T09:17:59.485Z,18.73
2019-03-31T09:20:34.282Z,22.98
2019-03-31T09:23:09.154Z,17.90
2019-03-31T09:25:47.373Z,21.23
2019-03-31T09:28:21.173Z,17.42
2019-03-31T09:30:55.597Z,20.70
2019-03-31T09:33:30.186Z,20.88
2019-03-31T09:36:15.347Z,22.58
2019-03-31T09:38:41.195Z,25.25
2019-03-31T09:41:15.091Z,22.58
2019-03-31T09:43:49.720Z,18.27
2019-03-31T09:46:23.918Z,19.27
2019-03-31T09:48:59.102Z,18.17
2019-03-31T09:51:33.810Z,21.12
2019-03-31T09:54:11.077Z,20.90
2019-03-31T09:56:45.331Z,19.70
2019-03-31T09:59:19.199Z,18.90
2019-03-31T10:01:53.821Z,21.23
2019-03-31T10:04:28.316Z,18.40
2019-03-31T10:07:04.019Z,17.17
2019-03-31T10:09:38.414Z,18.10
2019-03-31T10:12:13.409Z,20.57
2019-03-31T10:14:48.840Z,21.13
2019-03-31T10:17:23.272Z,18.83
2019-03-31T10:19:57.717Z,19.70
2019-03-31T10:22:31.595Z,20.80
2019-03-31T10:25:06.341Z,19.53
2019-03-31T10:27:41.534Z,17.23
2019-03-31T10:30:20.580Z,18.07
2019-03-31T10:32:55.415Z,17.57
2019-03-31T10:35:30.529Z,19.20
2019-03-31T10:38:05.110Z,21.27
2019-03-31T10:40:40.460Z,18.90
2019-03-31T10:43:15.675Z,16.70
2019-03-31T10:45:49.991Z,22.50
2019-03-31T10:48:24.834Z,20.43
2019-03-31T10:51:00.383Z,17.43
2019-03-31T10:53:34.718Z,15.00
2019-03-31T10:56:10.041Z,16.30
2019-03-31T10:58:46.630Z,19.23
2019-03-31T11:01:22.129Z,21.80
2019-03-31T11:03:58.035Z,17.07
2019-03-31T11:06:32.340Z,16.60
2019-03-31T11:09:08.814Z,17.47
2019-03-31T11:11:44.233Z,15.80
2019-03-31T11:14:18.924Z,15.13
2019-03-31T11:16:52.872Z,12.80
2019-03-31T11:19:26.447Z,13.57
2019-03-31T11:22:28.650Z,22.27
2019-03-31T11:25:02.608Z,14.87
2019-03-31T11:27:36.855Z,12.93
2019-03-31T11:30:12.869Z,13.27
2019-03-31T11:32:47.791Z,14.60
2019-03-31T11:35:35.095Z,15.47
2019-03-31T11:38:09.332Z,13.03
2019-03-31T11:40:43.689Z,13.03
2019-03-31T11:43:17.842Z,10.13
2019-03-31T11:45:52.022Z,12.37
2019-03-31T11:48:26.999Z,10.47
2019-03-31T11:51:01.375Z,8.83
2019-03-31T11:53:35.899Z,9.63
2019-03-31T11:56:11.362Z,6.93
2019-03-31T11:58:45.898Z,6.93
2019-03-31T12:01:20.328Z,6.67
2019-03-31T12:03:55.137Z,6.30
2019-03-31T12:06:30.135Z,5.03
2019-03-31T12:09:06.164Z,5.00
2019-03-31T12:11:40.718Z,5.07
2019-03-31T12:14:14.673Z,5.80
2019-03-31T12:16:48.208Z,5.43
2019-03-31T12:19:22.633Z,6.57
2019-03-31T12:21:56.929Z,3.97
2019-03-31T12:24:31.947Z,8.60
2019-03-31T12:27:06.435Z,11.93
2019-03-31T12:29:41.808Z,9.23
2019-03-31T12:32:16.014Z,5.80
2019-03-31T12:34:49.821Z,5.97
2019-03-31T12:37:25.233Z,5.67
2019-03-31T12:39:59.785Z,6.07
2019-03-31T12:42:33.335Z,6.80
2019-03-31T12:45:07.356Z,5.10
2019-03-31T12:47:40.848Z,4.47
2019-03-31T12:50:16.194Z,6.03
2019-03-31T12:52:51.232Z,9.30
2019-03-31T12:55:27.762Z,8.23
2019-03-31T12:58:01.950Z,6.27
2019-03-31T13:00:36.910Z,7.20
2019-03-31T13:03:10.966Z,11.77
2019-03-31T13:05:47.781Z,11.07
2019-03-31T13:08:21.852Z,10.40
2019-03-31T13:10:56.784Z,6.97
2019-03-31T13:13:33.710Z,9.03
2019-03-31T13:16:07.992Z,8.03
2019-03-31T13:18:41.638Z,12.53
2019-03-31T13:21:15.324Z,8.93
2019-03-31T13:23:50.824Z,9.60
2019-03-31T13:26:25.674Z,5.90
2019-03-31T13:29:00.133Z,8.20
2019-03-31T13:31:37.456Z,6.97
2019-03-31T13:34:13.033Z,7.43
2019-03-31T13:36:47.624Z,5.40
2019-03-31T13:39:21.126Z,6.37
2019-03-31T13:41:55.160Z,8.63
2019-03-31T13:44:29.819Z,5.07
2019-03-31T13:47:04.721Z,5.87
2019-03-31T13:49:38.776Z,3.63
2019-03-31T13:52:12.773Z,5.75
2019-03-31T13:54:46.950Z,5.87
2019-03-31T13:57:21.749Z,4.80
2019-03-31T13:59:56.672Z,5.40
2019-03-31T14:02:31.880Z,4.50
2019-03-31T14:05:07.139Z,5.83
2019-03-31T14:07:42.662Z,6.10
2019-03-31T14:10:17.395Z,6.70
2019-03-31T14:12:51.770Z,3.60
2019-03-31T14:15:27.855Z,6.17
2019-03-31T14:18:02.286Z,5.13
2019-03-31T14:20:36.543Z,5.50
2019-03-31T14:23:14.167Z,5.57
2019-03-31T14:25:49.747Z,5.53
2019-03-31T14:28:27.852Z,4.40
2019-03-31T14:31:01.553Z,4.73
2019-03-31T14:33:35.564Z,4.47
2019-03-31T14:36:09.134Z,6.80
2019-03-31T14:38:47.284Z,4.63
2019-03-31T14:41:21.758Z,6.40
2019-03-31T14:43:55.374Z,5.60
2019-03-31T14:46:29.642Z,8.57
2019-03-31T14:49:05.841Z,7.60
2019-03-31T14:51:42.156Z,7.23
2019-03-31T14:54:18.058Z,8.27
2019-03-31T14:56:52.200Z,6.40
2019-03-31T14:59:28.136Z,7.97
2019-03-31T15:02:04.902Z,11.27
2019-03-31T15:04:40.150Z,9.83
2019-03-31T15:07:14.831Z,6.53
2019-03-31T15:09:49.565Z,8.97
2019-03-31T15:12:23.841Z,6.27
2019-03-31T15:14:59.778Z,7.33
2019-03-31T15:17:34.173Z,6.97
2019-03-31T15:20:09.893Z,6.47
2019-03-31T15:22:44.668Z,7.00
2019-03-31T15:25:19.777Z,8.70
2019-03-31T15:27:58.508Z,4.33
2019-03-31T15:30:33.248Z,9.37
2019-03-31T15:33:07.446Z,10.47
2019-03-31T15:35:41.784Z,11.00
2019-03-31T15:38:16.966Z,8.03
2019-03-31T15:40:51.022Z,9.93
2019-03-31T15:43:25.393Z,12.93
2019-03-31T15:46:01.050Z,11.00
2019-03-31T15:48:36.234Z,9.63
2019-03-31T15:51:10.212Z,11.23
2019-03-31T15:53:47.513Z,12.23
2019-03-31T15:56:21.734Z,12.60
2019-03-31T15:58:55.911Z,10.25
2019-03-31T16:01:29.352Z,10.75
2019-03-31T16:04:03.308Z,12.65
2019-03-31T16:06:36.735Z,9.08
2019-03-31T16:09:22.897Z,9.05
2019-03-31T16:11:53.533Z,11.65
2019-03-31T16:14:20.575Z,10.55
2019-03-31T16:16:53.175Z,12.18
2019-03-31T16:19:25.944Z,14.03
2019-03-31T16:21:59.746Z,24.75
2019-03-31T16:24:39.431Z,28.55
2019-03-31T16:27:12.981Z,14.70
2019-03-31T16:29:46.231Z,13.38
2019-03-31T16:32:19.455Z,15.73
2019-03-31T16:34:52.983Z,13.63
2019-03-31T16:37:27.294Z,15.20
2019-03-31T16:40:02.471Z,18.07
2019-03-31T16:42:35.887Z,19.90
2019-03-31T16:45:09.262Z,23.27
2019-03-31T16:47:42.643Z,19.60
2019-03-31T16:50:16.223Z,17.90
2019-03-31T16:52:52.496Z,20.13
2019-03-31T16:55:24.553Z,23.07
2019-03-31T16:57:57.571Z,19.80
2019-03-31T17:00:31.546Z,24.47
2019-03-31T17:03:05.303Z,25.17
2019-03-31T17:05:42.576Z,25.17
2019-03-31T17:08:16.585Z,23.50
2019-03-31T17:10:49.975Z,26.07
2019-03-31T17:13:31.039Z,22.30
2019-03-31T17:16:05.150Z,29.50
2019-03-31T17:18:38.863Z,25.93
2019-03-31T17:21:12.494Z,36.57
2019-03-31T17:23:48.558Z,31.13
2019-03-31T17:26:22.036Z,27.50
2019-03-31T17:28:55.640Z,29.57
2019-03-31T17:31:29.227Z,33.33
2019-03-31T17:34:02.745Z,31.90
2019-03-31T17:36:35.423Z,33.33
2019-03-31T17:39:09.754Z,34.67
2019-03-31T17:41:44.163Z,30.60
2019-03-31T17:44:18.040Z,30.07
2019-03-31T17:46:52.353Z,35.40
2019-03-31T17:49:26.595Z,38.90
2019-03-31T17:52:01.189Z,38.23
2019-03-31T17:54:35.262Z,35.30
2019-03-31T17:57:08.616Z,31.13
2019-03-31T17:59:41.596Z,34.67
2019-03-31T18:02:14.852Z,37.08
2019-03-31T18:04:48.290Z,34.27
2019-03-31T18:07:21.692Z,40.63
2019-03-31T18:09:55.104Z,38.55
2019-03-31T18:12:28.486Z,39.65
2019-03-31T18:15:02.388Z,36.00
2019-03-31T18:17:35.429Z,38.88
2019-03-31T18:20:09.832Z,39.15
2019-03-31T18:22:43.310Z,37.85
2019-03-31T18:25:17.586Z,28.10
2019-03-31T18:27:52.041Z,35.33
2019-03-31T18:30:25.197Z,32.58
2019-03-31T18:32:58.106Z,37.30
2019-03-31T18:35:31.457Z,34.63
2019-03-31T18:38:04.704Z,35.68
2019-03-31T18:40:38.059Z,34.03
2019-03-31T18:43:11.991Z,39.30
2019-03-31T18:45:46.496Z,40.65
2019-03-31T18:48:20.203Z,43.10
2019-03-31T18:50:53.690Z,39.53
2019-03-31T18:53:38.980Z,40.30
2019-03-31T18:56:32.027Z,40.60
2019-03-31T18:59:22.515Z,45.17
2019-03-31T19:02:13.465Z,42.27
2019-03-31T19:05:02.319Z,35.38
2019-03-31T19:07:53.542Z,35.10
2019-03-31T19:10:49.582Z,32.42
2019-03-31T19:13:31.837Z,30.50
2019-03-31T19:16:24.130Z,38.48
2019-03-31T19:19:06.773Z,37.78
2019-03-31T19:21:50.937Z,34.97
2019-03-31T19:24:41.257Z,37.08
2019-03-31T19:27:40.015Z,34.27
2019-03-31T19:30:42.086Z,36.90
2019-03-31T19:33:52.355Z,33.08
2019-03-31T19:36:38.284Z,40.03
2019-03-31T19:39:30.094Z,38.78
2019-03-31T19:42:22.032Z,33.80
2019-03-31T19:45:13.878Z,31.70
2019-03-31T19:47:58.786Z,35.15
2019-03-31T19:50:54.367Z,31.15
2019-03-31T19:53:46.673Z,38.53
2019-03-31T19:56:38.050Z,36.10
2019-03-31T19:59:27.243Z,34.48
2019-03-31T20:02:15.390Z,40.70
2019-03-31T20:05:05.968Z,31.90
2019-03-31T20:07:51.591Z,31.95
2019-03-31T20:10:46.681Z,31.62
2019-03-31T20:13:38.583Z,32.08
2019-03-31T20:16:33.631Z,29.57
2019-03-31T20:19:23.971Z,35.50
2019-03-31T20:22:09.956Z,31.70
2019-03-31T20:25:07.273Z,31.33
2019-03-31T20:27:59.704Z,32.75
2019-03-31T20:30:50.961Z,35.80
2019-03-31T20:33:40.607Z,29.60
2019-03-31T20:36:32.880Z,30.32
2019-03-31T20:39:17.660Z,37.65
2019-03-31T20:42:08.300Z,31.93
2019-03-31T20:44:44.637Z,37.38
2019-03-31T20:47:17.413Z,31.77
2019-03-31T20:49:50.587Z,26.02
2019-03-31T20:54:56.101Z,26.20
2019-03-31T20:57:30.153Z,32.25
2019-03-31T21:00:03.578Z,30.57
2019-03-31T21:05:08.016Z,32.33
2019-03-31T21:07:41.493Z,29.35
2019-03-31T21:10:15.971Z,31.80
2019-03-31T21:12:49.055Z,35.73
2019-03-31T21:15:47.615Z,29.57
2019-03-31T21:18:23.799Z,27.98
2019-03-31T21:21:21.667Z,36.17
2019-03-31T21:24:09.237Z,34.43
2019-03-31T21:27:09.183Z,29.87
2019-03-31T21:29:44.902Z,36.55
2019-03-31T21:32:20.301Z,38.98
2019-03-31T21:34:54.679Z,35.08
2019-03-31T21:37:28.385Z,34.55
2019-03-31T21:40:01.486Z,36.33
2019-03-31T21:42:34.350Z,29.20
2019-03-31T21:45:07.733Z,36.65
2019-03-31T21:47:41.582Z,37.80
2019-03-31T21:50:14.803Z,34.73
2019-03-31T21:52:48.235Z,32.55
2019-03-31T21:55:21.825Z,39.58
2019-03-31T21:57:55.396Z,39.55
2019-03-31T22:03:19.631Z,26.37
2019-03-31T22:05:53.097Z,34.78
2019-03-31T22:10:58.246Z,27.20
2019-03-31T22:13:32.306Z,35.78
2019-03-31T22:16:06.616Z,37.15
2019-03-31T22:18:42.177Z,30.43
2019-03-31T22:21:16.928Z,44.58
2019-03-31T22:23:57.857Z,38.90
2019-03-31T22:26:26.306Z,40.25
2019-03-31T22:29:00.149Z,37.70
2019-03-31T22:31:33.781Z,34.40
2019-03-31T22:36:37.876Z,27.48
2019-03-31T22:39:11.136Z,29.90
2019-03-31T22:44:15.977Z,28.73
2019-03-31T22:51:56.454Z,30.02
2019-03-31T22:54:30.402Z,33.92
2019-03-31T22:57:04.157Z,32.10
2019-03-31T22:59:37.197Z,35.33
2019-03-31T23:02:10.267Z,36.42
2019-03-31T23:04:43.503Z,34.38
2019-03-31T23:09:48.289Z,27.93
2019-03-31T23:12:21.657Z,36.38
2019-03-31T23:14:55.436Z,38.83
2019-03-31T23:17:28.684Z,37.20
2019-03-31T23:20:04.743Z,36.65
2019-03-31T23:22:38.412Z,38.23
2019-03-31T23:25:11.345Z,33.63
2019-03-31T23:27:44.114Z,32.42
2019-03-31T23:30:16.638Z,39.08
2019-03-31T23:32:50.317Z,35.20
2019-03-31T23:35:24.330Z,40.23
2019-03-31T23:37:58.123Z,38.75
2019-03-31T23:40:31.689Z,30.10
2019-03-31T23:45:35.967Z,27.62
2019-03-31T23:50:40.841Z,29.35
2019-03-31T23:53:14.422Z,31.93
2019-03-31T23:58:19.988Z,28.12
